ЗЦ Хабаровск

Зональный центр "Хабаровск" предоставляет диспетчерское обслуживает воздушного движения сети "VATSIM" в РПИ Хабаровск (UHHH), Якутск (UEEE), Магадан (UHMM), Петропавловск - Камчатский (UHPP) на диспетчерском пункте RU-ERC_FSS с позывным "Дальконтроль" на всех высотах.

Лого ЗЦ Хабаровск
Руководитель региона

Sergey Balandin

Контакты

Инструкторы региона
Ivan Aksenenko (Instructor)
Sergey Balandin (Senior Instructor)
Включает в себя

РПИ Магадан
РПИ Петропавловск-Камчатский
РПИ Хабаровск
РПИ Якутск

Диспетчеры региона

Диспетчер Рейтинг Допуски *
Igor Melnick Supervisor UHHH_CTR
Ivan Aksenenko Instructor UHHH_CTR
Konstantin Gordeev Controller UHMM_CTR
Nikolay Yamushev Controller UHHH_CTR
Sergey Balandin Senior Instructor UHMM_CTR, UHPP_CTR, UHHH_CTR, UEEE_CTR
Evgenii Semendiaev Student UHHH_TWR*
Kirill Ryabov Student 2 UHHH_GND, UHWW_GND
Maxim Korobko Student UHHH_TWR*
Roman Vorontsov Student UHHH_GND*
Vadim Kotelenec Senior Student UHHH_APP

Аэропорты региона

ICAO Город Название Погода
UHMA Анадырь Угольный UHMA 161800Z 36005MPS 320V070 3200 BR NSC M28/M31 Q1034 R01/60D TEMPO 1500 BR RMK TDZ R01/36005G09MPS END R01/34007G08MPS QFE771/1029
UHBB Благовещенск Игнатьево UHBB 161900Z 03002MPS 010V080 9999 SCT033 M23/M26 Q1023 R36/450550 NOSIG RMK QFE749/0999
UHWW Владивосток Владивосток UHWW 161930Z 19001MPS 9999 NSC M16/M22 Q1023 R25L/0///70 NOSIG RMK QFE766
UHKD Комсомольск-на-Амуре Дзёмги
UHKK Комсомольск-на-Амуре Хурба
UERL Ленск Ленск
UHMM Магадан Магадан UHMM 161900Z 13001MPS 9999 NSC M33/M36 Q1025 RMK QFE754 R28/08003MPS
UERR Мирный Мирный UERR 161900Z 05001MPS CAVOK M39/M41 Q1029 R25/490237 NOSIG RMK QFE740/0987
UELL Нерюнгри Чульман
UHNN Николаевск-на-Амуре Николаевск-на-Амуре
UHOO Охотск Охотск
UHMP Певек Певек
UHPP Петропавловск-Камчатский Елизово UHPP 161930Z 31009MPS 9999 DRSN BKN082 M06/M16 Q1009 R34L/CLRD70 NOSIG RMK QFE753/1004
UHMD Провидения Бухта Провидения
UHKG Советская Гавань Каменный Ручей
UHKM Советская Гавань Май-Гатка
UEST Тикси Тикси
UERP Удачный Полярный UERP 161900Z 18003MPS 7000 -SN OVC100 M28/M30 Q1020 R35/490238 RMK QFE721
UHHH Хабаровск Хабаровск UHHH 161930Z VRB01MPS 7000 -SN SCT048 M19/M22 Q1019 R23R/490540 NOSIG RMK QFE758/1011
UESS Черский Черский
UHSS Южно-Сахалинск Хомутово UHSS 161930Z 35005MPS 9000 -SHSN SCT030CB M05/M07 Q1011 R01/820355 NOSIG RMK MT OBSC QFE757/1010
UEEE Якутск Якутск UEEE 161930Z 00000MPS 5000 BR NSC M40/M44 Q1038 R23L/490150 NOSIG RMK QFE770
UHBS
UHNA Аян Аян
UHNB Богородское Богородское
UHSB Буревестник Буревестник
UHBE Зея Зея
UHSO Зональное Зональное
UHWK Кавалерово Кавалерово
UHEK Купол Купол
UHSI Курильск Итуруп
UHBI Магдагачи Магдагачи
UHSN Ноглики Ноглики
UHSH Оха Новостройка
UHWP Пластун Пластун
UHBW Тында Тында
UEMU Усть-Мая Усть-Мая
UHHT Хабаровск Хабаровск
UHHY Чумикан Чумикан
UHSK Шахтерск Шахтёрск
UHBP Экимчан Экимчан
UHSM Южно-Курильск Менделеево